Time;durP1;ratioP1;P1;durP2;ratioP2;P2;SDS_P1;SDS_P2;PMS_P1;PMS_P2;Temp;Humidity;BMP_temperature;BMP_pressure;BME280_temperature;BME280_humidity;BME280_pressure;Samples;Min_cycle;Max_cycle;Signal;HPM_P1;HPM_P2
2022/06/09 00:00:10;;;;;;;6.30;2.60;;;;;;;;;;5013776;28;20564;-69
2022/06/09 00:02:37;;;;;;;4.88;2.72;;;;;;;;;;5015600;28;20119;-68
2022/06/09 00:05:05;;;;;;;5.10;2.80;;;;;;;;;;5015612;28;20026;-69
2022/06/09 00:07:31;;;;;;;4.43;2.65;;;;;;;;;;5015132;28;20059;-68
2022/06/09 00:09:59;;;;;;;6.85;2.72;;;;;;;;;;5015349;28;20044;-69
2022/06/09 00:12:27;;;;;;;9.13;2.45;;;;;;;;;;5015052;28;20041;-68
2022/06/09 00:14:56;;;;;;;3.47;2.05;;;;;;;;;;5015165;28;20457;-68
2022/06/09 00:17:22;;;;;;;3.60;2.40;;;;;;;;;;5015148;28;20487;-68
2022/06/09 00:19:48;;;;;;;3.35;2.20;;;;;;;;;;5015371;28;20029;-68
2022/06/09 00:22:14;;;;;;;7.88;2.40;;;;;;;;;;5015024;28;20030;-68
2022/06/09 00:24:41;;;;;;;8.05;2.40;;;;;;;;;;5014758;28;20053;-68
2022/06/09 00:27:07;;;;;;;7.47;2.60;;;;;;;;;;5014738;28;20045;-68
2022/06/09 00:29:34;;;;;;;4.78;2.45;;;;;;;;;;5014773;28;20041;-68
2022/06/09 00:32:00;;;;;;;7.68;2.55;;;;;;;;;;5013633;28;20014;-68
2022/06/09 00:34:26;;;;;;;3.40;2.55;;;;;;;;;;5014666;28;20484;-68
2022/06/09 00:36:52;;;;;;;4.72;2.28;;;;;;;;;;5014650;28;20038;-69
2022/06/09 00:39:18;;;;;;;4.10;2.53;;;;;;;;;;5013750;28;20536;-69
2022/06/09 00:41:44;;;;;;;3.95;2.55;;;;;;;;;;5014468;28;20112;-69
2022/06/09 00:44:17;;;;;;;5.72;2.78;;;;;;;;;;5014728;28;20392;-66
2022/06/09 00:46:43;;;;;;;5.68;2.80;;;;;;;;;;5014801;28;20022;-69
2022/06/09 00:49:16;;;;;;;8.00;2.78;;;;;;;;;;5014362;28;20060;-69
2022/06/09 00:51:53;;;;;;;5.15;2.85;;;;;;;;;;5014623;28;20033;-69
2022/06/09 00:54:24;;;;;;;8.00;2.63;;;;;;;;;;5014296;28;20065;-69
2022/06/09 00:56:52;;;;;;;4.43;2.70;;;;;;;;;;5014460;28;20029;-69
2022/06/09 00:59:20;;;;;;;3.40;2.20;;;;;;;;;;5014567;28;20062;-69
2022/06/09 01:01:46;;;;;;;5.68;2.33;;;;;;;;;;5014383;28;20050;-68
2022/06/09 01:04:14;;;;;;;4.72;2.22;;;;;;;;;;5014246;28;20037;-69
2022/06/09 01:06:49;;;;;;;5.45;2.47;;;;;;;;;;5014118;28;20037;-69
2022/06/09 01:09:19;;;;;;;4.47;2.40;;;;;;;;;;5014082;28;20639;-69
2022/06/09 01:11:47;;;;;;;5.25;2.38;;;512.50;2380.80;;;;;;5014122;28;20057;-69
2022/06/09 01:14:14;;;;;;;7.95;2.60;;;;;;;;;;5014522;28;20030;-69
2022/06/09 01:17:00;;;;;;;7.28;2.58;;;512.30;2380.80;;;;;;5014037;28;20060;-68
2022/06/09 01:19:48;;;;;;;3.80;2.13;;;512.50;2380.80;;;;;;5014171;28;20026;-68
2022/06/09 01:22:20;;;;;;;4.93;2.40;;;512.40;2380.80;;;;;;5013848;28;20025;-68
2022/06/09 01:25:24;;;;;;;2.92;2.30;;;512.50;2380.80;;;;;;5013669;28;20129;-69
2022/06/09 01:28:08;;;;;;;5.53;2.30;;;512.60;2380.80;;;;;;5010341;28;20030;-68
2022/06/09 01:31:11;;;;;;;4.70;2.30;;;512.50;2380.80;;;;;;5013755;28;20037;-69
2022/06/09 01:34:05;;;;;;;2.78;1.95;;;512.50;2380.80;;;;;;5013839;28;20021;-68
2022/06/09 01:36:44;;;;;;;3.80;2.35;;;512.50;2380.80;;;;;;5013565;28;20084;-68
2022/06/09 01:39:10;;;;;;;5.93;2.25;;;512.40;2380.80;;;;;;5013693;28;20029;-69
2022/06/09 01:41:45;;;;;;;10.52;2.58;;;512.40;2380.80;;;;;;5013659;28;20030;-68
2022/06/09 01:44:10;;;;;;;5.18;2.17;;;512.50;2380.80;;;;;;5013522;28;20029;-68
2022/06/09 01:46:37;;;;;;;6.40;2.28;;;512.50;2380.80;;;;;;5013495;28;20033;-69
2022/06/09 01:49:07;;;;;;;7.45;2.60;;;512.40;2380.80;;;;;;5012976;28;20517;-69
2022/06/09 01:51:35;;;;;;;3.50;2.08;;;;;;;;;;5013438;28;20105;-68
2022/06/09 01:54:03;;;;;;;3.40;2.50;;;;;;;;;;5013376;28;20032;-69
2022/06/09 01:56:35;;;;;;;4.68;2.30;;;;;;;;;;5013637;28;20101;-69
2022/06/09 01:59:12;;;;;;;3.60;2.33;;;;;;;;;;5013441;28;20510;-69
2022/06/09 02:01:43;;;;;;;2.20;2.00;;;;;;;;;;5013467;28;20484;-68
2022/06/09 02:04:14;;;;;;;4.40;2.15;;;;;;;;;;5013212;28;20123;-68
2022/06/09 02:06:41;;;;;;;4.93;2.50;;;;;;;;;;5013309;28;20388;-69
2022/06/09 02:09:07;;;;;;;3.90;2.17;;;;;;;;;;5013168;28;20057;-67
2022/06/09 02:11:34;;;;;;;4.85;2.13;;;;;;;;;;5013207;28;20060;-66
2022/06/09 02:14:00;;;;;;;3.78;2.00;;;;;;;;;;5013213;28;20026;-66
2022/06/09 02:16:26;;;;;;;4.47;2.25;;;;;;;;;;5012885;28;20392;-66
2022/06/09 02:18:54;;;;;;;4.35;2.30;;;;;;;;;;5013103;28;20088;-67
2022/06/09 02:21:39;;;;;;;3.65;2.20;;;;;;;;;;5013142;28;20022;-67
2022/06/09 02:24:05;;;;;;;5.28;2.30;;;;;;;;;;5012991;28;20128;-67
2022/06/09 02:26:32;;;;;;;5.85;2.22;;;;;;;;;;5012959;28;20477;-67
2022/06/09 02:28:58;;;;;;;6.63;2.42;;;;;;;;;;5012911;28;20034;-67
2022/06/09 02:31:24;;;;;;;5.05;2.42;;;;;;;;;;5013007;28;20018;-67
2022/06/09 02:33:51;;;;;;;5.18;2.45;;;;;;;;;;5012747;28;20026;-67
2022/06/09 02:36:18;;;;;;;4.55;2.20;;;;;;;;;;5013008;28;20022;-67
2022/06/09 02:38:44;;;;;;;2.42;2.22;;;;;;;;;;5012808;28;20026;-67
2022/06/09 02:41:10;;;;;;;3.33;2.20;;;512.30;2380.80;;;;;;5012875;28;20496;-67
2022/06/09 02:43:36;;;;;;;5.05;2.10;;;512.20;2380.80;;;;;;5013063;28;20476;-67
2022/06/09 02:46:03;;;;;;;4.45;2.50;;;512.20;2380.80;;;;;;5012923;28;20037;-67
2022/06/09 02:48:30;;;;;;;4.20;2.63;;;512.30;2380.80;;;;;;5012849;28;20483;-67
2022/06/09 02:50:56;;;;;;;4.53;2.25;;;512.40;2380.80;;;;;;5012811;28;20038;-67
2022/06/09 02:53:23;;;;;;;4.18;2.25;;;512.40;2380.80;;;;;;5012797;28;20373;-67
2022/06/09 02:55:49;;;;;;;6.20;3.30;;;512.40;2380.80;;;;;;5013147;28;20030;-67
2022/06/09 02:58:15;;;;;;;9.02;2.97;;;512.30;2380.80;;;;;;4994947;28;20036;-67
2022/06/09 03:00:43;;;;;;;7.05;4.35;;;512.30;2380.80;;;;;;5012782;28;20548;-67
2022/06/09 03:03:12;;;;;;;12.05;5.05;;;;;;;;;;5016542;28;20033;-67
2022/06/09 03:05:38;;;;;;;11.27;7.45;;;;;;;;;;5016848;28;20069;-67
2022/06/09 03:08:06;;;;;;;9.40;5.40;;;;;;;;;;5016400;28;20388;-67
2022/06/09 03:10:33;;;;;;;4.03;2.65;;;;;;;;;;5016363;28;20033;-67
2022/06/09 03:12:58;;;;;;;4.53;2.25;;;512.20;2380.80;;;;;;5016225;28;20473;-67
2022/06/09 03:15:25;;;;;;;4.63;2.40;;;512.20;2380.80;;;;;;5016518;28;20033;-67
2022/06/09 03:17:51;;;;;;;4.10;2.25;;;512.30;2380.80;;;;;;5016592;28;20018;-67
2022/06/09 03:20:20;;;;;;;6.22;2.40;;;512.30;2380.80;;;;;;5016324;28;20034;-67
2022/06/09 03:22:46;;;;;;;6.68;2.65;;;512.30;2380.80;;;;;;5016043;28;20507;-67
2022/06/09 03:25:12;;;;;;;3.72;1.98;;;512.30;2380.80;;;;;;5016082;28;20054;-67
2022/06/09 03:27:39;;;;;;;4.28;2.60;;;512.40;2380.80;;;;;;5016405;28;20476;-67
2022/06/09 03:30:06;;;;;;;3.55;2.30;;;512.40;2380.80;;;;;;5016209;28;20041;-66
2022/06/09 03:32:32;;;;;;;3.25;2.10;;;512.40;2380.80;;;;;;5016101;28;20101;-67
2022/06/09 03:34:58;;;;;;;14.45;3.42;;;;;;;;;;5015949;28;20584;-68
2022/06/09 03:37:24;;;;;;;5.53;2.33;;;;;;;;;;5015818;28;20024;-67
2022/06/09 03:39:51;;;;;;;6.18;2.70;;;;;;;;;;5015787;28;20480;-67
2022/06/09 03:42:17;;;;;;;6.10;2.33;;;;;;;;;;5015785;28;20029;-67
2022/06/09 03:44:43;;;;;;;7.03;2.30;;;;;;;;;;5015800;28;20033;-67
2022/06/09 03:47:10;;;;;;;7.07;2.75;;;;;;;;;;5015661;28;20072;-67
2022/06/09 03:49:37;;;;;;;4.47;2.60;;;;;;;;;;5015821;28;20369;-67
2022/06/09 03:52:03;;;;;;;5.32;2.85;;;;;;;;;;5015689;28;20022;-67
2022/06/09 03:54:29;;;;;;;5.95;2.40;;;;;;;;;;5015657;28;20033;-67
2022/06/09 03:56:55;;;;;;;6.28;2.50;;;;;;;;;;5015681;28;20101;-67
2022/06/09 03:59:21;;;;;;;9.02;2.70;;;;;;;;;;5015434;28;20424;-67
2022/06/09 04:01:47;;;;;;;5.07;2.58;;;;;;;;;;5015530;28;20472;-67
2022/06/09 04:04:13;;;;;;;4.63;2.65;;;;;;;;;;5015932;28;20038;-67
2022/06/09 04:06:40;;;;;;;4.75;2.35;;;;;;;;;;5015498;28;20045;-67
2022/06/09 04:09:06;;;;;;;15.10;3.10;;;;;;;;;;5015129;28;20064;-68
2022/06/09 04:11:32;;;;;;;7.07;2.97;;;;;;;;;;5015159;28;20022;-67
2022/06/09 04:13:59;;;;;;;4.57;2.50;;;;;;;;;;5014949;28;20032;-67
2022/06/09 04:16:25;;;;;;;7.10;2.85;;;;;;;;;;5015270;28;20033;-67
2022/06/09 04:18:56;;;;;;;14.73;3.10;;;;;;;;;;5015086;28;20026;-68
2022/06/09 04:21:22;;;;;;;5.87;2.63;;;;;;;;;;5015137;28;20022;-67
2022/06/09 04:23:49;;;;;;;8.60;3.17;;;;;;;;;;5014981;28;20125;-70
2022/06/09 04:26:16;;;;;;;7.68;2.67;;;;;;;;;;5015105;28;20022;-67
2022/06/09 04:28:43;;;;;;;8.63;2.88;;;;;;;;;;5014902;28;20108;-67
2022/06/09 04:31:10;;;;;;;6.32;2.65;;;;;;;;;;5014803;28;20068;-67
2022/06/09 04:33:36;;;;;;;4.88;2.72;;;;;;;;;;5014863;28;20057;-67
2022/06/09 04:36:02;;;;;;;3.47;2.60;;;;;;;;;;5014676;28;20034;-67
2022/06/09 04:38:28;;;;;;;9.45;3.13;;;;;;;;;;5014741;28;20114;-67
2022/06/09 04:40:54;;;;;;;5.15;2.67;;;;;;;;;;5014652;28;20072;-67
2022/06/09 04:43:21;;;;;;;5.47;2.28;;;512.90;2380.80;;;;;;5014610;28;20060;-67
2022/06/09 04:45:46;;;;;;;4.57;2.70;;;512.90;2380.80;;;;;;5014753;28;20527;-67
2022/06/09 04:48:13;;;;;;;7.72;3.03;;;;;;;;;;5014523;28;20056;-67
2022/06/09 04:50:40;;;;;;;14.10;3.97;;;;;;;;;;5014834;28;20392;-67
2022/06/09 04:53:07;;;;;;;13.70;4.55;;;;;;;;;;5014243;28;20029;-68
2022/06/09 04:55:34;;;;;;;12.18;4.35;;;;;;;;;;5014529;28;20511;-68
2022/06/09 04:58:00;;;;;;;19.60;5.70;;;;;;;;;;5014200;28;20026;-68
2022/06/09 05:00:27;;;;;;;11.52;4.07;;;;;;;;;;5014200;28;20480;-68
2022/06/09 05:02:54;;;;;;;31.35;7.55;;;;;;;;;;5014275;28;20030;-67
2022/06/09 05:05:23;;;;;;;10.25;4.07;;;;;;;;;;5014599;28;20180;-67
2022/06/09 05:07:49;;;;;;;8.88;3.28;;;;;;;;;;5014405;28;20030;-67
2022/06/09 05:10:15;;;;;;;9.43;3.67;;;;;;;;;;5014328;28;20045;-67
2022/06/09 05:12:42;;;;;;;19.48;3.90;;;;;;;;;;5013965;28;20030;-67
2022/06/09 05:15:12;;;;;;;10.80;3.72;;;;;;;;;;5014168;28;20034;-67
2022/06/09 05:17:38;;;;;;;19.77;5.00;;;;;;;;;;5013915;28;20018;-67
2022/06/09 05:20:04;;;;;;;16.35;5.10;;;;;;;;;;5014023;28;20384;-67
2022/06/09 05:22:30;;;;;;;14.15;4.53;;;;;;;;;;5014109;28;20380;-67
2022/06/09 05:24:59;;;;;;;15.30;5.15;;;;;;;;;;5013039;28;20129;-67
2022/06/09 05:27:25;;;;;;;20.88;5.55;;;;;;;;;;5013574;28;20125;-67
2022/06/09 05:29:51;;;;;;;16.70;4.72;;;;;;;;;;5013603;28;20034;-68
2022/06/09 05:32:18;;;;;;;14.65;4.90;;;;;;;;;;5013910;28;20031;-67
2022/06/09 05:34:44;;;;;;;12.35;6.28;;;;;;;;;;5013543;28;20370;-67
2022/06/09 05:37:10;;;;;;;8.73;5.65;;;;;;;;;;5013561;28;20037;-67
2022/06/09 05:45:06;;;;;;;17.05;6.28;;;;;;;;;;5013787;28;20491;-67
2022/06/09 05:47:33;;;;;;;11.27;6.25;;;;;;;;;;5013571;28;20037;-67
2022/06/09 05:49:59;;;;;;;20.05;7.20;;;;;;;;;;5013348;28;20045;-67
2022/06/09 05:52:27;;;;;;;26.40;7.13;;;;;;;;;;5013822;28;20032;-67
2022/06/09 05:54:53;;;;;;;25.23;6.93;;;;;;;;;;5013124;28;20029;-67
2022/06/09 05:57:20;;;;;;;29.30;7.38;;;;;;;;;;5013396;28;20021;-67
2022/06/09 05:59:46;;;;;;;26.98;7.07;;;;;;;;;;5013434;28;20058;-67
2022/06/09 06:02:15;;;;;;;23.83;6.05;;;;;;;;;;5013214;28;20519;-67
2022/06/09 06:04:41;;;;;;;25.52;6.72;;;;;;;;;;5013260;28;20460;-67
2022/06/09 06:07:07;;;;;;;15.55;5.63;;;;;;;;;;5013309;28;20032;-68
2022/06/09 06:09:33;;;;;;;19.45;6.90;;;;;;;;;;5012908;28;20077;-67
2022/06/09 06:12:00;;;;;;;11.10;6.38;;;;;;;;;;5013321;28;20033;-67
2022/06/09 06:14:27;;;;;;;10.93;5.05;;;;;;;;;;5013203;28;20112;-67
2022/06/09 06:16:53;;;;;;;14.82;7.28;;;;;;;;;;5013155;28;20479;-67
2022/06/09 06:19:19;;;;;;;15.27;6.32;;;;;;;;;;5012972;28;20034;-67
2022/06/09 06:21:47;;;;;;;11.55;6.40;;;;;;;;;;5013193;28;20026;-67
2022/06/09 06:24:17;;;;;;;12.32;5.50;;;;;;;;;;5012479;28;20121;-67
2022/06/09 06:26:43;;;;;;;10.85;5.60;;;;;;;;;;5013180;28;20079;-67
2022/06/09 06:29:14;;;;;;;21.15;5.80;;;;;;;;;;5013257;28;20041;-67
2022/06/09 06:31:40;;;;;;;10.25;4.97;;;;;;;;;;5013187;28;20025;-67
2022/06/09 06:34:07;;;;;;;16.13;5.13;;;;;;;;;;5012831;28;20026;-67
2022/06/09 06:36:33;;;;;;;11.55;5.40;;;;;;;;;;5014097;28;20439;-67
2022/06/09 06:38:59;;;;;;;10.23;4.53;;;;;;;;;;5016663;28;20026;-67
2022/06/09 06:41:25;;;;;;;12.13;4.75;;;;;;;;;;5017032;28;20029;-67
2022/06/09 06:43:52;;;;;;;9.15;4.38;;;;;;;;;;5017066;28;20026;-67
2022/06/09 06:46:18;;;;;;;10.85;4.90;;;;;;;;;;5016948;28;20068;-67
2022/06/09 06:48:45;;;;;;;10.27;5.65;;;;;;;;;;5016763;28;20037;-67
2022/06/09 06:51:12;;;;;;;11.85;4.40;;;;;;;;;;5016710;28;20033;-67
2022/06/09 06:53:38;;;;;;;15.25;4.80;;;;;;;;;;5016530;28;20049;-67
2022/06/09 06:56:05;;;;;;;10.80;4.65;;;;;;;;;;5016831;28;20026;-67
2022/06/09 06:58:31;;;;;;;8.63;4.38;;;;;;;;;;5016649;28;20105;-67
2022/06/09 07:00:58;;;;;;;11.38;4.07;;;;;;;;;;5016428;28;20026;-67
2022/06/09 07:03:24;;;;;;;16.80;5.00;;;;;;;;;;5016473;28;20026;-67
2022/06/09 07:05:50;;;;;;;10.75;4.53;;;;;;;;;;5016818;28;20026;-67
2022/06/09 07:08:17;;;;;;;7.47;4.30;;;;;;;;;;5016172;28;20040;-68
2022/06/09 07:10:46;;;;;;;9.65;3.97;;;;;;;;;;5016207;28;20021;-67
2022/06/09 07:13:13;;;;;;;7.68;3.58;;;;;;;;;;5016602;28;20018;-67
2022/06/09 07:15:39;;;;;;;9.82;4.15;;;;;;;;;;5016437;28;20029;-67
2022/06/09 07:18:05;;;;;;;7.30;3.47;;;;;;;;;;5016181;28;20104;-67
2022/06/09 07:20:31;;;;;;;9.63;3.75;;;;;;;;;;5016101;28;20018;-67
2022/06/09 07:22:57;;;;;;;7.88;3.58;;;;;;;;;;5015966;28;20021;-67
2022/06/09 07:25:25;;;;;;;10.07;4.07;;;;;;;;;;5015709;28;20041;-67
2022/06/09 07:27:52;;;;;;;7.10;3.53;;;;;;;;;;5016211;28;20029;-67
2022/06/09 07:30:19;;;;;;;10.05;5.25;;;;;;;;;;5015962;28;20033;-67
2022/06/09 07:32:46;;;;;;;6.53;3.65;;;;;;;;;;5015816;28;20072;-67
2022/06/09 07:35:13;;;;;;;7.82;3.70;;;;;;;;;;5016102;28;20060;-67
2022/06/09 07:37:40;;;;;;;21.10;6.00;;;;;;;;;;5015841;28;20496;-67
2022/06/09 07:40:07;;;;;;;8.50;4.35;;;;;;;;;;5015747;28;20029;-67
2022/06/09 07:42:33;;;;;;;5.57;3.55;;;;;;;;;;5015904;28;20022;-67
2022/06/09 07:44:59;;;;;;;8.90;4.80;;;;;;;;;;5015649;28;20033;-68
2022/06/09 07:47:25;;;;;;;21.00;5.25;;;;;;;;;;5015198;28;20058;-67
2022/06/09 07:49:52;;;;;;;22.95;5.68;;;;;;;;;;5015463;28;20061;-67
2022/06/09 07:52:18;;;;;;;5.22;3.30;;;;;;;;;;5015378;28;20068;-68
2022/06/09 07:54:45;;;;;;;14.45;4.78;;;;;;;;;;5015467;28;20026;-68
2022/06/09 07:57:11;;;;;;;16.17;4.18;;;;;;;;;;5015393;28;20017;-68
2022/06/09 07:59:37;;;;;;;5.05;3.50;;;;;;;;;;5015735;28;20025;-67
2022/06/09 08:02:04;;;;;;;7.80;4.55;;;;;;;;;;5015273;28;20026;-68
2022/06/09 08:04:30;;;;;;;11.05;4.25;;;;;;;;;;5015532;28;20401;-68
2022/06/09 08:06:56;;;;;;;9.95;5.47;;;;;;;;;;5015174;28;20392;-68
2022/06/09 08:09:23;;;;;;;6.70;3.80;;;;;;;;;;5013850;28;20631;-68
2022/06/09 08:11:49;;;;;;;7.30;3.47;;;;;;;;;;5015089;28;20061;-68
2022/06/09 08:14:15;;;;;;;7.32;3.70;;;;;;;;;;5015253;28;20029;-68
2022/06/09 08:16:42;;;;;;;11.30;4.43;;;;;;;;;;5015039;28;20384;-68
2022/06/09 08:19:08;;;;;;;7.05;3.75;;;;;;;;;;5015055;28;20050;-67
2022/06/09 08:21:34;;;;;;;11.75;4.13;;;;;;;;;;5015178;28;20022;-67
2022/06/09 08:24:00;;;;;;;6.57;3.50;;;;;;;;;;5014664;28;20042;-67
2022/06/09 08:26:27;;;;;;;12.35;3.80;;;;;;;;;;5015095;28;20083;-68
2022/06/09 08:28:53;;;;;;;6.13;3.05;;;;;;;;;;5014988;28;20084;-68
2022/06/09 08:31:19;;;;;;;7.80;3.38;;;;;;;;;;5014727;28;20061;-67
2022/06/09 08:33:46;;;;;;;5.70;2.90;;;;;;;;;;5014762;28;20022;-68
2022/06/09 08:36:12;;;;;;;5.18;2.95;;;;;;;;;;5015135;28;20053;-68
2022/06/09 08:38:39;;;;;;;9.38;3.08;;;;;;;;;;5014627;28;20083;-69
2022/06/09 08:41:13;;;;;;;6.93;3.33;;;;;;;;;;5014488;28;20102;-69
2022/06/09 08:43:53;;;;;;;11.68;3.92;;;;;;;;;;5014504;28;20022;-69
2022/06/09 08:46:19;;;;;;;5.97;2.92;;;;;;;;;;5014733;28;20029;-68
2022/06/09 08:48:46;;;;;;;6.78;3.47;;;;;;;;;;5014601;28;20021;-69
2022/06/09 08:51:12;;;;;;;5.15;3.03;;;;;;;;;;5012895;28;20412;-68
2022/06/09 08:53:45;;;;;;;7.22;4.20;;;;;;;;;;5014419;28;20060;-69
2022/06/09 08:56:11;;;;;;;4.72;3.15;;;;;;;;;;5014606;28;20380;-68
2022/06/09 08:58:41;;;;;;;6.78;4.13;;;;;;;;;;5013805;28;20100;-68
2022/06/09 09:01:11;;;;;;;12.67;4.73;;;;;;;;;;5013963;28;20026;-68
2022/06/09 09:03:40;;;;;;;20.40;4.05;;;;;;;;;;5014152;28;20026;-68
2022/06/09 09:06:18;;;;;;;16.38;5.45;;;;;;;;;;5014648;28;20042;-69
2022/06/09 09:08:44;;;;;;;6.85;3.80;;;;;;;;;;5014212;28;20037;-68
2022/06/09 09:11:23;;;;;;;5.15;3.38;;;;;;;;;;5014074;28;20037;-68
2022/06/09 09:14:00;;;;;;;4.90;3.10;;;;;;;;;;5014172;28;20033;-68
2022/06/09 09:16:49;;;;;;;7.53;3.75;;;;;;;;;;5013991;28;20488;-68
2022/06/09 09:19:18;;;;;;;10.10;4.35;;;;;;;;;;4934426;29;20047;-68
2022/06/09 09:21:50;;;;;;;7.05;3.92;;;;;;;;;;4934379;29;20040;-68
2022/06/09 09:24:17;;;;;;;12.85;4.60;;;;;;;;;;4934148;29;20154;-68
2022/06/09 09:26:43;;;;;;;18.92;4.85;;;;;;;;;;4934235;29;20030;-69
2022/06/09 09:29:12;;;;;;;7.93;3.75;;;;;;;;;;4934083;29;20043;-69
2022/06/09 09:31:50;;;;;;;5.68;3.20;;;;;;;;;;4934211;29;20036;-68
2022/06/09 09:34:21;;;;;;;4.38;2.63;;;;;;;;;;4934156;29;20122;-69
2022/06/09 09:36:50;;;;;;;6.55;3.10;;;;;;;;;;4933903;29;20043;-68
2022/06/09 09:39:17;;;;;;;9.77;3.17;;;;;;;;;;4933936;29;20020;-68
2022/06/09 09:41:44;;;;;;;7.55;3.55;;;;;;;;;;4933791;29;20031;-68
2022/06/09 09:44:18;;;;;;;4.88;3.08;;;;;;;;;;4934085;29;20047;-69
2022/06/09 09:46:48;;;;;;;5.35;3.28;;;;;;;;;;4934036;29;20027;-69
2022/06/09 09:49:35;;;;;;;6.37;4.23;;;;;;;;;;4933880;29;20430;-69
2022/06/09 09:52:01;;;;;;;5.72;3.40;;;;;;;;;;4933723;29;20301;-69
2022/06/09 09:54:31;;;;;;;19.17;7.50;;;;;;;;;;4933545;29;20035;-69
2022/06/09 09:57:14;;;;;;;10.90;3.65;;;;;;;;;;4997417;28;20489;-68
2022/06/09 09:59:45;;;;;;;18.00;4.32;;;;;;;;;;5013203;28;20033;-68
2022/06/09 10:10:28;;;;;;;16.27;5.03;;;;;;;;;;5012839;28;20140;-68
2022/06/09 10:12:57;;;;;;;12.50;4.78;;;;;;;;;;5013159;28;20025;-68
2022/06/09 10:15:26;;;;;;;7.45;3.00;;;;;;;;;;5013086;28;20109;-68
2022/06/09 10:17:55;;;;;;;8.48;3.28;;;;;;;;;;5013134;28;20377;-68
2022/06/09 10:20:27;;;;;;;25.00;4.70;;;;;;;;;;5013092;28;20084;-68
2022/06/09 10:23:02;;;;;;;6.13;3.55;;;;;;;;;;5013131;28;20114;-68
2022/06/09 10:25:31;;;;;;;20.48;5.70;;;;;;;;;;5012859;28;20044;-68
2022/06/09 10:28:02;;;;;;;22.13;5.20;;;;;;;;;;5012771;28;20076;-68
2022/06/09 10:30:36;;;;;;;8.52;3.88;;;;;;;;;;5012930;28;20048;-68
2022/06/09 10:33:25;;;;;;;12.32;4.43;;;;;;;;;;5013033;28;20084;-68
2022/06/09 10:35:57;;;;;;;8.10;3.97;;;;;;;;;;4976065;28;20129;-68
2022/06/09 10:38:32;;;;;;;6.03;3.40;;;;;;;;;;5013282;28;20033;-68
2022/06/09 10:41:00;;;;;;;6.57;3.53;;;;;;;;;;5012826;28;20022;-68
2022/06/09 10:43:38;;;;;;;11.77;4.13;;;;;;;;;;5012998;28;20533;-69
2022/06/09 10:46:10;;;;;;;7.20;2.97;;;;;;;;;;5013280;28;20376;-68
2022/06/09 10:57:20;;;;;;;9.15;3.67;;;;;;;;;;5012532;28;19951;-69
2022/06/09 10:59:49;;;;;;;6.50;3.60;;;;;;;;;;5012516;28;20064;-69
2022/06/09 11:02:21;;;;;;;5.85;3.65;;;;;;;;;;5012652;28;20029;-69
2022/06/09 11:04:48;;;;;;;4.18;3.17;;;;;;;;;;5012804;28;20038;-69
2022/06/09 11:07:29;;;;;;;7.18;3.45;;;;;;;;;;5012529;28;20026;-69
2022/06/09 11:10:14;;;;;;;3.60;2.65;;;;;;;;;;5012259;28;20034;-68
2022/06/09 11:12:52;;;;;;;8.15;4.50;;;;;;;;;;5012839;28;20037;-69
2022/06/09 11:15:33;;;;;;;13.23;4.22;;;;;;;;;;5012958;28;20026;-69
2022/06/09 11:18:23;;;;;;;18.85;4.53;;;;;;;;;;5012830;28;20030;-69
2022/06/09 11:20:52;;;;;;;4.43;3.10;;;;;;;;;;5012410;28;20018;-69
2022/06/09 11:23:27;;;;;;;8.52;3.60;;;;;;;;;;5014847;28;20365;-69
2022/06/09 11:26:00;;;;;;;6.20;3.17;;;;;;;;;;5015752;28;20046;-69
2022/06/09 11:28:34;;;;;;;6.53;2.67;;;;;;;;;;5015848;28;20473;-70
2022/06/09 11:31:21;;;;;;;47.33;5.85;;;;;;;;;;5015900;28;20037;-70
2022/06/09 11:33:54;;;;;;;10.30;4.13;;;;;;;;;;5015901;28;20361;-69
2022/06/09 11:36:23;;;;;;;15.65;4.57;;;;;;;;;;5015877;28;20040;-69
2022/06/09 11:38:55;;;;;;;4.25;3.03;;;;;;;;;;5015847;28;20030;-69
2022/06/09 11:41:24;;;;;;;4.10;2.65;;;;;;;;;;5015411;28;20029;-70
2022/06/09 11:44:00;;;;;;;8.18;3.15;;;;;;;;;;5015588;28;20105;-70
2022/06/09 11:46:29;;;;;;;13.13;3.63;;;;;;;;;;5015646;28;20030;-69
2022/06/09 11:48:58;;;;;;;38.63;6.30;;;;;;;;;;5015369;28;20120;-69
2022/06/09 11:51:25;;;;;;;5.20;2.97;;;;;;;;;;5015627;28;20069;-70
2022/06/09 11:53:58;;;;;;;7.40;3.35;;;;;;;;;;5015506;28;20026;-70
2022/06/09 11:56:47;;;;;;;4.93;3.50;;;;;;;;;;5015414;28;20054;-69
2022/06/09 11:59:13;;;;;;;8.48;3.75;;;;;;;;;;5014933;28;20046;-69
2022/06/09 12:01:39;;;;;;;7.35;3.38;;;;;;;;;;5015807;28;20145;-69
2022/06/09 12:04:24;;;;;;;4.50;3.03;;;;;;;;;;5015168;28;20481;-68
2022/06/09 12:07:16;;;;;;;5.85;2.95;;;;;;;;;;5015392;28;20030;-69
2022/06/09 12:09:48;;;;;;;5.82;3.30;;;;;;;;;;4985239;28;20050;-69
2022/06/09 12:12:26;;;;;;;6.40;3.60;;;;;;;;;;5015113;28;20030;-69
2022/06/09 12:15:11;;;;;;;5.28;4.40;;;;;;;;;;5015001;28;20036;-68
2022/06/09 12:17:37;;;;;;;5.20;3.80;;;;;;;;;;5015437;28;20423;-69
2022/06/09 12:20:23;;;;;;;3.92;3.53;;;;;;;;;;5015089;28;20112;-68
2022/06/09 12:22:59;;;;;;;15.25;5.30;;;;;;;;;;5014890;28;20124;-68
2022/06/09 12:25:33;;;;;;;5.95;3.42;;;;;;;;;;5014547;28;20078;-68
2022/06/09 12:27:59;;;;;;;5.95;3.42;;;;;;;;;;5013623;28;20109;-68
2022/06/09 12:30:32;;;;;;;7.15;4.60;;;;;;;;;;5014734;28;20030;-68
2022/06/09 12:33:17;;;;;;;11.63;4.00;;;;;;;;;;5013281;28;20519;-68
2022/06/09 12:35:52;;;;;;;7.15;4.00;;;;;;;;;;5014927;28;20028;-68
2022/06/09 12:38:21;;;;;;;5.55;3.60;;;;;;;;;;5014863;28;20038;-68
2022/06/09 12:40:49;;;;;;;8.60;3.75;;;;;;;;;;5014791;28;20104;-68
2022/06/09 12:43:36;;;;;;;8.13;4.75;;;;;;;;;;5014748;28;20448;-68
2022/06/09 12:46:15;;;;;;;20.10;4.90;;;;;;;;;;5014630;28;20026;-68
2022/06/09 12:48:41;;;;;;;6.13;3.80;;;;;;;;;;5014390;28;20026;-68
2022/06/09 12:51:10;;;;;;;28.73;4.78;;;;;;;;;;5014460;28;20117;-68
2022/06/09 12:53:38;;;;;;;7.70;4.10;;;;;;;;;;5014712;28;20064;-68
2022/06/09 12:56:18;;;;;;;10.27;4.05;;;;;;;;;;5014457;28;20044;-68
2022/06/09 12:58:46;;;;;;;13.52;4.47;;;;;;;;;;5014254;28;20025;-69
2022/06/09 13:01:14;;;;;;;6.28;3.55;;;;;;;;;;5013941;28;20041;-69
2022/06/09 13:03:43;;;;;;;18.60;4.43;;;;;;;;;;5014247;28;20477;-68
2022/06/09 13:06:10;;;;;;;9.05;4.13;;;;;;;;;;5014537;28;20036;-68
2022/06/09 13:08:42;;;;;;;8.43;4.43;;;;;;;;;;5014221;28;20109;-68
2022/06/09 13:11:14;;;;;;;14.27;5.50;;;;;;;;;;5013852;28;20030;-68
2022/06/09 13:13:42;;;;;;;26.17;5.20;;;;;;;;;;5013961;28;20481;-68
2022/06/09 13:16:20;;;;;;;7.45;4.13;;;;;;;;;;5013908;28;20491;-68
2022/06/09 13:18:47;;;;;;;13.43;4.22;;;;;;;;;;5013959;28;20026;-68
2022/06/09 13:21:16;;;;;;;5.78;3.67;;;;;;;;;;5013953;28;20034;-68
2022/06/09 13:23:44;;;;;;;10.57;4.47;;;;;;;;;;5012276;28;20049;-68
2022/06/09 13:26:13;;;;;;;7.93;4.10;;;;;;;;;;5013745;28;20037;-68
2022/06/09 13:28:49;;;;;;;6.70;4.10;;;;;;;;;;5013579;28;20465;-68
2022/06/09 13:31:24;;;;;;;10.15;3.90;;;;;;;;;;5013944;28;20468;-69
2022/06/09 13:34:09;;;;;;;15.85;4.80;;;;;;;;;;5013543;28;20028;-68
2022/06/09 13:36:38;;;;;;;6.95;4.15;;;;;;;;;;5013600;28;20056;-68
2022/06/09 13:39:23;;;;;;;8.60;4.18;;;;;;;;;;5013729;28;20105;-68
2022/06/09 13:41:49;;;;;;;8.35;3.80;;;;;;;;;;5013615;28;20098;-68
2022/06/09 13:44:18;;;;;;;5.90;3.50;;;;;;;;;;5011783;28;20069;-68
2022/06/09 13:47:00;;;;;;;6.85;3.80;;;;;;;;;;5013317;28;20358;-68
2022/06/09 13:49:29;;;;;;;7.40;4.43;;;;;;;;;;5013372;28;20044;-68
2022/06/09 13:52:03;;;;;;;9.55;4.05;;;;;;;;;;5013680;28;20098;-68
2022/06/09 13:54:40;;;;;;;8.98;4.57;;;;;;;;;;5013661;28;20022;-68
2022/06/09 13:57:13;;;;;;;6.80;4.55;;;;;;;;;;5013165;28;20026;-68
2022/06/09 13:59:39;;;;;;;6.90;4.72;;;;;;;;;;5012048;28;20498;-68
2022/06/09 14:02:05;;;;;;;8.52;5.07;;;;;;;;;;5013076;28;20091;-68
2022/06/09 14:04:35;;;;;;;16.92;5.72;;;;;;;;;;5013357;28;20464;-68
2022/06/09 14:07:01;;;;;;;17.30;4.32;;;;;;;;;;5013499;28;20392;-69
2022/06/09 14:09:27;;;;;;;4.68;4.00;;;;;;;;;;5013449;28;20030;-68
2022/06/09 14:11:53;;;;;;;7.03;4.28;;;;;;;;;;5013214;28;20026;-68
2022/06/09 14:14:19;;;;;;;6.03;4.47;;;;;;;;;;5013190;28;20490;-68
2022/06/09 14:16:47;;;;;;;14.48;4.28;;;;;;;;;;5013039;28;20032;-69
2022/06/09 14:19:15;;;;;;;7.60;4.85;;;;;;;;;;5013069;28;20041;-68
2022/06/09 14:21:42;;;;;;;5.40;3.80;;;;;;;;;;5013173;28;20025;-68
2022/06/09 14:24:19;;;;;;;14.38;5.00;;;;;;;;;;5012770;28;20071;-68
2022/06/09 14:26:46;;;;;;;25.88;6.18;;;;;;;;;;5013012;28;20026;-68
2022/06/09 14:29:13;;;;;;;6.55;4.13;;;;;;;;;;5012675;28;20120;-68
2022/06/09 14:31:39;;;;;;;7.50;3.92;;;;;;;;;;5012956;28;20022;-68
2022/06/09 14:34:05;;;;;;;14.38;4.72;;;;;;;;;;5012872;28;20053;-68
2022/06/09 14:36:32;;;;;;;6.50;3.83;;;;;;;;;;5013215;28;20034;-68
2022/06/09 14:38:58;;;;;;;6.95;3.65;;;;;;;;;;5012903;28;20026;-68
2022/06/09 14:41:25;;;;;;;9.43;4.38;;;;;;;;;;5012715;28;20522;-68
2022/06/09 14:43:52;;;;;;;13.25;5.03;;;;;;;;;;5012828;28;20107;-68
2022/06/09 14:46:29;;;;;;;12.60;4.68;;;;;;;;;;5012805;28;20026;-68
2022/06/09 14:48:56;;;;;;;7.70;3.60;;;;;;;;;;5012893;28;20040;-68
2022/06/09 14:51:23;;;;;;;12.07;4.35;;;;;;;;;;5012731;28;20057;-68
2022/06/09 14:53:49;;;;;;;10.73;4.32;;;;;;;;;;5013032;28;20022;-68
2022/06/09 14:56:16;;;;;;;8.65;5.00;;;;;;;;;;5012663;28;20488;-68
2022/06/09 14:58:42;;;;;;;9.85;5.60;;;;;;;;;;5015653;28;20075;-69